Manchester, Minnesota
Current Conditions -  °F | °C
As of 6:13 PM on Sunday 23 Nov 2014 (Local Time) from KAEL Reporting Station
Overcast Overcast  
Wind Chill: 32°   Ceiling: 800
Heat Index: 39°   Visibility: 10mi
Dew Point: 39°   Wind: 10mph
Humidity: 100%   Direction: 320°NW
Pressure: 29.38"   Gusts: 18mph
Location:  43.72°N, 93.45°W
Report Text: KAEL 240013Z AUTO 32009G16KT 10SM OVC008 04/04 A2938 RMK AO2
Loading
Personal Weather Stations






























Interactive Weather Map New forecast layout! Learn more

10-Day Weather Forecast

Advertisements
Track Severe Weather on mobile